createdAt,value
2019-05-02T00:00:23.221Z,96.69
2019-05-02T00:01:23.250Z,96.79
2019-05-02T00:02:23.943Z,96.89
2019-05-02T00:03:24.211Z,96.94
2019-05-02T00:04:23.182Z,96.73
2019-05-02T00:05:27.385Z,96.62
2019-05-02T00:06:24.142Z,96.42
2019-05-02T00:07:24.194Z,97.14
2019-05-02T00:08:23.113Z,96.83
2019-05-02T00:09:24.164Z,96.52
2019-05-02T00:10:24.983Z,96.73
2019-05-02T00:11:23.135Z,96.77
2019-05-02T00:12:23.075Z,97.29
2019-05-02T00:13:23.056Z,96.88
2019-05-02T00:14:23.086Z,97.29
2019-05-02T00:15:23.097Z,96.88
2019-05-02T00:16:23.028Z,96.77
2019-05-02T00:17:25.660Z,96.67
2019-05-02T00:18:23.008Z,96.98
2019-05-02T00:19:23.080Z,96.77
2019-05-02T00:20:25.991Z,96.98
2019-05-02T00:21:23.019Z,96.77
2019-05-02T00:22:22.964Z,97.08
2019-05-02T00:23:27.787Z,96.98
2019-05-02T00:24:23.937Z,96.67
2019-05-02T00:25:23.032Z,96.98
2019-05-02T00:26:24.643Z,96.77
2019-05-02T00:27:22.924Z,96.72
2019-05-02T00:28:22.884Z,97.02
2019-05-02T00:29:23.742Z,96.72
2019-05-02T00:30:22.874Z,96.82
2019-05-02T00:31:22.895Z,96.61
2019-05-02T00:32:23.669Z,97.44
2019-05-02T00:33:22.937Z,96.82
2019-05-02T00:34:22.831Z,97.23
2019-05-02T00:35:22.906Z,96.92
2019-05-02T00:36:22.809Z,97.13
2019-05-02T00:37:24.577Z,97.13
2019-05-02T00:38:22.770Z,97.07
2019-05-02T00:39:23.859Z,97.17
2019-05-02T00:40:25.880Z,97.38
2019-05-02T00:41:22.780Z,97.38
2019-05-02T00:42:24.051Z,97.38
2019-05-02T00:43:23.731Z,97.49
2019-05-02T00:44:22.701Z,97.38
2019-05-02T00:45:24.073Z,97.33
2019-05-02T00:46:22.713Z,97.59
2019-05-02T00:47:22.663Z,97.33
2019-05-02T00:48:24.421Z,97.23
2019-05-02T00:49:22.643Z,97.64
2019-05-02T00:50:22.724Z,97.28
2019-05-02T00:51:26.764Z,97.59
2019-05-02T00:52:23.651Z,97.69
2019-05-02T00:53:22.595Z,97.28
2019-05-02T00:54:24.204Z,97.89
2019-05-02T00:55:22.607Z,97.28
2019-05-02T00:56:22.569Z,98.00
2019-05-02T00:57:22.670Z,97.79
2019-05-02T00:58:22.548Z,97.69
2019-05-02T00:59:22.599Z,98.41
2019-05-02T01:00:22.518Z,97.69
2019-05-02T01:01:24.322Z,97.22
2019-05-02T01:02:23.510Z,97.74
2019-05-02T01:03:22.581Z,97.42
2019-05-02T01:04:23.257Z,97.63
2019-05-02T01:05:22.514Z,97.06
2019-05-02T01:06:22.482Z,96.95
2019-05-02T01:07:25.493Z,97.78
2019-05-02T01:08:23.193Z,97.57
2019-05-02T01:09:22.486Z,97.78
2019-05-02T01:10:22.495Z,97.47
2019-05-02T01:11:22.454Z,97.67
2019-05-02T01:12:26.524Z,97.88
2019-05-02T01:13:23.475Z,97.47
2019-05-02T01:14:22.377Z,98.40
2019-05-02T01:15:23.408Z,98.09
2019-05-02T01:16:22.357Z,98.40
2019-05-02T01:17:26.018Z,98.50
2019-05-02T01:18:23.322Z,98.19
2019-05-02T01:19:22.358Z,98.40
2019-05-02T01:20:27.362Z,98.09
2019-05-02T01:21:23.371Z,98.09
2019-05-02T01:22:22.271Z,98.30
2019-05-02T01:23:23.044Z,98.50
2019-05-02T01:24:22.300Z,98.71
2019-05-02T01:25:22.242Z,98.50
2019-05-02T01:26:24.212Z,97.67
2019-05-02T01:27:23.212Z,98.19
2019-05-02T01:28:22.213Z,98.82
2019-05-02T01:29:24.781Z,98.92
2019-05-02T01:30:23.174Z,98.92
2019-05-02T01:31:22.224Z,98.40
2019-05-02T01:32:25.142Z,97.78
2019-05-02T01:33:23.165Z,98.55
2019-05-02T01:34:22.135Z,98.34
2019-05-02T01:35:22.147Z,98.40
2019-05-02T01:36:22.138Z,98.24
2019-05-02T01:37:22.179Z,98.24
2019-05-02T01:38:26.196Z,98.55
2019-05-02T01:39:23.078Z,98.86
2019-05-02T01:40:23.119Z,98.75
2019-05-02T01:41:24.026Z,98.96
2019-05-02T01:42:24.072Z,98.86
2019-05-02T01:43:23.972Z,98.13
2019-05-02T01:44:22.030Z,98.44
2019-05-02T01:45:22.014Z,98.24
2019-05-02T01:46:24.008Z,98.18
2019-05-02T01:47:21.993Z,98.44
2019-05-02T01:48:22.033Z,98.60
2019-05-02T01:49:23.162Z,98.28
2019-05-02T01:50:22.073Z,98.18
2019-05-02T01:51:21.967Z,98.91
2019-05-02T01:52:23.696Z,99.01
2019-05-02T01:53:21.914Z,98.91
2019-05-02T01:54:22.966Z,99.01
2019-05-02T01:55:22.376Z,99.01
2019-05-02T01:56:21.916Z,99.01
2019-05-02T01:57:21.883Z,99.11
2019-05-02T01:58:22.906Z,98.91
2019-05-02T01:59:21.863Z,98.28
2019-05-02T02:00:21.838Z,98.95
2019-05-02T02:01:23.378Z,99.22
2019-05-02T02:02:21.832Z,99.22
2019-05-02T02:03:21.849Z,99.01
2019-05-02T02:04:22.310Z,98.70
2019-05-02T02:05:21.791Z,98.91
2019-05-02T02:06:21.781Z,98.91
2019-05-02T02:07:22.792Z,99.11
2019-05-02T02:08:21.754Z,98.74
2019-05-02T02:09:21.763Z,98.95
2019-05-02T02:10:21.724Z,98.95
2019-05-02T02:11:21.713Z,98.95
2019-05-02T02:12:21.814Z,99.05
2019-05-02T02:13:21.707Z,99.26
2019-05-02T02:14:21.795Z,98.95
2019-05-02T02:15:25.167Z,99.26
2019-05-02T02:16:22.666Z,99.57
2019-05-02T02:17:21.676Z,99.47
2019-05-02T02:18:22.261Z,99.26
2019-05-02T02:19:22.627Z,99.16
2019-05-02T02:20:21.717Z,99.16
2019-05-02T02:21:25.615Z,99.37
2019-05-02T02:22:22.708Z,99.16
2019-05-02T02:23:21.590Z,99.16
2019-05-02T02:24:25.087Z,99.26
2019-05-02T02:25:21.573Z,99.26
2019-05-02T02:26:21.614Z,98.95
2019-05-02T02:27:24.550Z,99.52
2019-05-02T02:28:21.542Z,99.10
2019-05-02T02:29:21.622Z,99.72
2019-05-02T02:30:24.605Z,99.10
2019-05-02T02:31:21.570Z,99.47
2019-05-02T02:32:27.154Z,99.52
2019-05-02T02:33:22.475Z,99.41
2019-05-02T02:34:29.413Z,99.41
2019-05-02T02:35:22.467Z,99.21
2019-05-02T02:36:32.071Z,99.10
2019-05-02T02:37:22.442Z,99.62
2019-05-02T02:38:26.932Z,99.31
2019-05-02T02:39:22.418Z,99.31
2019-05-02T02:40:21.471Z,99.21
2019-05-02T02:41:21.394Z,99.31
2019-05-02T02:42:24.983Z,99.82
2019-05-02T02:43:33.476Z,99.21
2019-05-02T02:44:22.352Z,99.00
2019-05-02T02:45:21.410Z,99.52
2019-05-02T02:46:21.341Z,99.52
2019-05-02T02:47:22.422Z,99.04
2019-05-02T02:48:21.305Z,99.56
2019-05-02T02:49:24.501Z,99.25
2019-05-02T02:50:21.293Z,99.41
2019-05-02T02:51:24.542Z,99.25
2019-05-02T02:52:21.276Z,99.00
2019-05-02T02:53:24.248Z,99.35
2019-05-02T02:54:21.247Z,99.15
2019-05-02T02:55:24.518Z,99.35
2019-05-02T02:56:21.224Z,99.15
2019-05-02T02:57:26.511Z,99.15
2019-05-02T02:58:22.212Z,99.46
2019-05-02T02:59:26.366Z,99.66
2019-05-02T03:00:22.169Z,99.04
2019-05-02T03:01:29.075Z,99.15
2019-05-02T03:02:22.180Z,99.61
2019-05-02T03:03:28.029Z,99.56
2019-05-02T03:04:22.229Z,99.56
2019-05-02T03:05:25.950Z,98.78
2019-05-02T03:06:22.161Z,99.25
2019-05-02T03:07:26.229Z,99.35
2019-05-02T03:08:23.123Z,99.35
2019-05-02T03:09:26.591Z,99.19
2019-05-02T03:10:22.132Z,99.46
2019-05-02T03:11:23.831Z,99.25
2019-05-02T03:12:21.108Z,99.19
2019-05-02T03:13:22.025Z,99.61
2019-05-02T03:14:21.086Z,99.61
2019-05-02T03:15:28.004Z,98.99
2019-05-02T03:16:22.005Z,99.30
2019-05-02T03:17:26.404Z,99.61
2019-05-02T03:18:21.987Z,99.40
2019-05-02T03:19:23.371Z,99.44
2019-05-02T03:20:22.016Z,99.71
2019-05-02T03:21:22.613Z,99.61
2019-05-02T03:22:21.034Z,99.65
2019-05-02T03:23:22.350Z,99.61
2019-05-02T03:24:20.972Z,99.19
2019-05-02T03:25:25.111Z,99.99
2019-05-02T03:26:21.891Z,99.51
2019-05-02T03:27:20.974Z,99.99
2019-05-02T03:28:21.124Z,99.61
2019-05-02T03:29:20.905Z,99.30
2019-05-02T03:30:32.464Z,99.40
2019-05-02T03:31:25.437Z,99.40
2019-05-02T03:32:33.621Z,99.34
2019-05-02T03:33:21.823Z,99.65
2019-05-02T03:34:20.844Z,99.09
2019-05-02T03:35:39.650Z,99.24
2019-05-02T03:36:30.110Z,99.55
2019-05-02T03:37:21.756Z,99.76
2019-05-02T03:38:31.694Z,99.51
2019-05-02T03:39:21.749Z,99.86
2019-05-02T03:40:20.751Z,99.65
2019-05-02T03:41:23.292Z,99.65
2019-05-02T03:42:20.718Z,99.61
2019-05-02T03:43:25.568Z,99.61
2019-05-02T03:44:26.101Z,99.71
2019-05-02T03:45:20.690Z,99.82
2019-05-02T03:46:22.707Z,99.82
2019-05-02T03:47:20.649Z,99.71
2019-05-02T03:48:25.667Z,99.61
2019-05-02T03:49:21.626Z,99.96
2019-05-02T03:50:31.161Z,99.61
2019-05-02T03:51:25.025Z,99.61
2019-05-02T03:52:20.592Z,99.30
2019-05-02T03:53:24.947Z,99.51
2019-05-02T03:54:21.637Z,99.51
2019-05-02T03:55:23.929Z,99.51
2019-05-02T03:56:21.546Z,99.40
2019-05-02T03:57:32.244Z,99.19
2019-05-02T03:58:21.554Z,99.44
2019-05-02T03:59:20.534Z,98.88
2019-05-02T04:00:23.765Z,99.09
2019-05-02T04:01:20.587Z,98.82
2019-05-02T04:02:21.784Z,99.34
2019-05-02T04:03:20.476Z,99.44
2019-05-02T04:04:21.055Z,99.03
2019-05-02T04:05:21.482Z,99.24
2019-05-02T04:06:23.361Z,99.30
2019-05-02T04:07:20.489Z,98.93
2019-05-02T04:08:22.554Z,99.24
2019-05-02T04:09:20.411Z,99.13
2019-05-02T04:10:21.465Z,99.24
2019-05-02T04:11:20.383Z,99.13
2019-05-02T04:12:21.840Z,98.72
2019-05-02T04:13:20.375Z,98.57
2019-05-02T04:14:36.774Z,98.57
2019-05-02T04:15:21.333Z,98.78
2019-05-02T04:16:20.402Z,99.09
2019-05-02T04:17:20.304Z,99.30
2019-05-02T04:18:21.404Z,99.40
2019-05-02T04:19:20.285Z,99.30
2019-05-02T04:20:20.376Z,99.09
2019-05-02T04:21:24.467Z,98.42
2019-05-02T04:22:21.327Z,98.63
2019-05-02T04:23:21.316Z,98.52
2019-05-02T04:24:21.238Z,98.21
2019-05-02T04:25:20.229Z,97.69
2019-05-02T04:26:20.278Z,97.65
2019-05-02T04:27:20.212Z,97.55
2019-05-02T04:28:20.279Z,97.75
2019-05-02T04:29:24.499Z,97.13
2019-05-02T04:30:21.160Z,97.55
2019-05-02T04:31:24.862Z,97.55
2019-05-02T04:32:21.140Z,96.88
2019-05-02T04:33:20.150Z,97.60
2019-05-02T04:34:20.141Z,97.09
2019-05-02T04:35:20.111Z,96.57
2019-05-02T04:36:20.165Z,96.15
2019-05-02T04:37:20.089Z,95.74
2019-05-02T04:38:30.845Z,95.74
2019-05-02T04:39:21.731Z,95.53
2019-05-02T04:40:20.043Z,95.39
2019-05-02T04:41:28.664Z,95.28
2019-05-02T04:42:23.172Z,95.28
2019-05-02T04:43:20.035Z,95.54
2019-05-02T04:44:20.020Z,94.72
2019-05-02T04:45:26.436Z,94.10
2019-05-02T04:46:27.166Z,94.06
2019-05-02T04:47:22.165Z,93.64
2019-05-02T04:48:20.078Z,93.54
2019-05-02T04:49:28.615Z,93.49
2019-05-02T04:50:25.267Z,93.39
2019-05-02T04:51:20.601Z,92.57
2019-05-02T04:52:21.122Z,92.67
2019-05-02T04:53:25.931Z,92.36
2019-05-02T04:54:26.294Z,92.05
2019-05-02T04:55:28.311Z,91.94
2019-05-02T04:56:20.874Z,91.53
2019-05-02T04:57:19.894Z,91.53
2019-05-02T04:58:27.553Z,92.00
2019-05-02T04:59:23.023Z,91.80
2019-05-02T05:00:19.894Z,92.00
2019-05-02T05:01:21.367Z,91.49
2019-05-02T05:02:23.020Z,91.38
2019-05-02T05:03:21.191Z,91.69
2019-05-02T05:04:19.816Z,90.87
2019-05-02T05:05:25.435Z,90.97
2019-05-02T05:06:20.817Z,90.87
2019-05-02T05:07:19.741Z,90.35
2019-05-02T05:08:26.646Z,90.45
2019-05-02T05:09:20.731Z,90.66
2019-05-02T05:10:20.790Z,90.62
2019-05-02T05:11:24.651Z,90.83
2019-05-02T05:12:20.693Z,90.10
2019-05-02T05:13:22.933Z,90.00
2019-05-02T05:14:19.779Z,90.31
2019-05-02T05:15:36.259Z,89.28
2019-05-02T05:16:20.643Z,89.03
2019-05-02T05:17:20.098Z,88.82
2019-05-02T05:18:19.612Z,89.23
2019-05-02T05:19:23.049Z,89.54
2019-05-02T05:20:20.603Z,88.92
2019-05-02T05:21:24.657Z,89.34
2019-05-02T05:22:20.564Z,89.34
2019-05-02T05:23:21.538Z,89.29
2019-05-02T05:24:19.559Z,88.78
2019-05-02T05:25:21.432Z,88.57
2019-05-02T05:26:19.528Z,88.89
2019-05-02T05:27:22.738Z,88.06
2019-05-02T05:28:20.060Z,88.64
2019-05-02T05:29:23.291Z,88.22
2019-05-02T05:30:19.488Z,88.02
2019-05-02T05:31:24.089Z,87.56
2019-05-02T05:32:20.450Z,87.26
2019-05-02T05:33:19.528Z,87.19
2019-05-02T05:34:22.731Z,87.15
2019-05-02T05:35:20.430Z,87.15
2019-05-02T05:36:20.039Z,87.56
2019-05-02T05:37:20.392Z,86.49
2019-05-02T05:38:22.956Z,86.63
2019-05-02T05:39:20.407Z,86.39
2019-05-02T05:40:22.534Z,85.81
2019-05-02T05:41:23.155Z,85.97
2019-05-02T05:42:23.455Z,86.29
2019-05-02T05:43:20.657Z,86.60
2019-05-02T05:44:23.199Z,86.04
2019-05-02T05:45:20.317Z,85.73
2019-05-02T05:46:19.325Z,85.59
2019-05-02T05:47:21.345Z,85.69
2019-05-02T05:48:19.355Z,85.59
2019-05-02T05:49:21.770Z,85.28
2019-05-02T05:50:19.259Z,85.28
2019-05-02T05:51:20.747Z,85.79
2019-05-02T05:52:19.330Z,84.83
2019-05-02T05:53:21.411Z,84.27
2019-05-02T05:54:20.328Z,83.86
2019-05-02T05:55:24.056Z,83.55
2019-05-02T05:56:20.185Z,83.76
2019-05-02T05:57:21.112Z,83.83
2019-05-02T05:58:19.161Z,83.00
2019-05-02T05:59:22.304Z,83.04
2019-05-02T06:00:22.975Z,82.59
2019-05-02T06:01:34.419Z,82.90
2019-05-02T06:02:20.112Z,83.31
2019-05-02T06:06:23.210Z,81.90
2019-05-02T06:07:11.774Z,80.72
2019-05-02T06:08:13.851Z,76.40
2019-05-02T06:09:13.963Z,71.94
2019-05-02T06:10:19.780Z,69.26
2019-05-02T06:11:14.823Z,66.08
2019-05-02T06:12:17.769Z,63.04
2019-05-02T06:13:12.927Z,60.95
2019-05-02T06:14:15.278Z,59.05
2019-05-02T06:15:11.700Z,57.78
2019-05-02T06:16:15.067Z,55.69
2019-05-02T06:17:11.665Z,54.53
2019-05-02T06:20:35.860Z,51.46
2019-05-02T06:21:27.901Z,50.23
2019-05-02T06:22:27.902Z,50.23
2019-05-02T06:23:31.009Z,49.19
2019-05-02T06:24:28.884Z,48.75
2019-05-02T06:25:34.355Z,48.63
2019-05-02T06:26:28.855Z,46.77
2019-05-02T06:27:30.460Z,45.45
2019-05-02T06:28:27.824Z,45.62
2019-05-02T06:29:29.945Z,43.80
2019-05-02T06:30:31.046Z,44.40
2019-05-02T06:31:27.889Z,44.88
2019-05-02T06:32:27.776Z,45.06
2019-05-02T06:33:30.526Z,44.34
2019-05-02T06:34:27.808Z,43.01
2019-05-02T06:35:27.759Z,43.37
2019-05-02T06:36:32.107Z,42.95
2019-05-02T06:37:28.729Z,42.21
2019-05-02T06:38:27.722Z,41.60
2019-05-02T06:39:31.975Z,40.50
2019-05-02T06:40:27.777Z,40.66
2019-05-02T06:41:27.782Z,40.84
2019-05-02T06:42:32.182Z,40.42
2019-05-02T06:43:27.662Z,38.51
2019-05-02T06:44:27.655Z,38.81
2019-05-02T06:45:31.865Z,39.61
2019-05-02T06:46:29.569Z,40.00
2019-05-02T06:47:27.684Z,38.51
2019-05-02T06:48:27.617Z,39.31
2019-05-02T06:49:27.617Z,38.89
2019-05-02T06:50:27.613Z,38.18
2019-05-02T06:51:28.677Z,37.16
2019-05-02T06:52:32.758Z,37.56
2019-05-02T06:53:28.608Z,37.45
2019-05-02T06:54:27.538Z,36.94
2019-05-02T06:55:28.162Z,37.43
2019-05-02T06:56:28.530Z,36.93
2019-05-02T06:57:27.560Z,37.01
2019-05-02T06:58:27.496Z,36.71
2019-05-02T06:59:27.492Z,36.18
2019-05-02T07:00:35.588Z,36.05
2019-05-02T07:01:28.464Z,35.95
2019-05-02T07:02:28.266Z,35.53
2019-05-02T07:03:28.455Z,35.21
2019-05-02T07:04:27.429Z,35.53
2019-05-02T07:05:28.265Z,35.04
2019-05-02T07:06:27.844Z,35.42
2019-05-02T07:07:31.297Z,34.83
2019-05-02T07:08:28.463Z,36.24
2019-05-02T07:09:39.980Z,36.05
2019-05-02T07:10:30.927Z,35.57
2019-05-02T07:11:28.347Z,35.85
2019-05-02T07:12:27.388Z,35.75
2019-05-02T07:13:27.330Z,35.67
2019-05-02T07:14:27.434Z,36.44
2019-05-02T07:15:27.514Z,35.24
2019-05-02T07:16:37.579Z,35.02
2019-05-02T07:17:32.230Z,34.01
2019-05-02T07:18:28.325Z,33.98
2019-05-02T07:19:29.257Z,33.65
2019-05-02T07:20:27.383Z,33.84
2019-05-02T07:21:27.255Z,33.23
2019-05-02T07:22:28.293Z,32.37
2019-05-02T07:23:27.227Z,32.75
2019-05-02T07:24:30.801Z,32.75
2019-05-02T07:25:27.217Z,34.20
2019-05-02T07:26:27.187Z,35.00
2019-05-02T07:27:28.308Z,35.07
2019-05-02T07:28:28.158Z,33.56
2019-05-02T07:29:27.248Z,33.25
2019-05-02T07:30:30.069Z,32.26
2019-05-02T07:31:28.130Z,31.78
2019-05-02T07:32:27.140Z,32.50
2019-05-02T07:33:27.220Z,33.42
2019-05-02T07:34:27.091Z,33.04
2019-05-02T07:35:27.162Z,34.00
2019-05-02T07:36:31.124Z,36.02
2019-05-02T07:37:28.064Z,36.41
2019-05-02T07:38:27.597Z,35.46
2019-05-02T07:39:27.046Z,34.76
2019-05-02T07:40:28.115Z,33.62
2019-05-02T07:41:29.065Z,33.64
2019-05-02T07:42:27.016Z,34.83
2019-05-02T07:43:26.996Z,35.60
2019-05-02T07:44:32.064Z,34.97
2019-05-02T07:45:27.967Z,33.75
2019-05-02T07:46:26.988Z,32.92
2019-05-02T07:47:28.758Z,32.28
2019-05-02T07:48:26.941Z,31.10
2019-05-02T07:49:32.277Z,30.19
2019-05-02T07:50:27.921Z,30.25
2019-05-02T07:51:26.922Z,29.47
2019-05-02T07:52:28.848Z,29.77
2019-05-02T07:53:26.884Z,28.41
2019-05-02T07:54:26.953Z,29.10
2019-05-02T07:55:26.856Z,29.53
2019-05-02T07:56:26.936Z,29.57
2019-05-02T07:57:30.558Z,30.06
2019-05-02T07:58:27.811Z,29.44
2019-05-02T07:59:26.808Z,28.39
2019-05-02T08:00:26.867Z,27.44
2019-05-02T08:01:26.818Z,26.81
2019-05-02T08:02:26.798Z,25.82
2019-05-02T08:03:29.333Z,25.42
2019-05-02T08:04:27.759Z,24.42
2019-05-02T08:05:26.800Z,25.57
2019-05-02T08:06:35.014Z,25.18
2019-05-02T08:07:34.257Z,25.59
2019-05-02T08:08:29.934Z,25.62
2019-05-02T08:09:26.712Z,26.50
2019-05-02T08:10:26.686Z,27.01
2019-05-02T08:11:32.305Z,27.64
2019-05-02T08:12:27.686Z,27.12
2019-05-02T08:13:26.767Z,28.92
2019-05-02T08:14:29.182Z,28.54
2019-05-02T08:15:27.647Z,29.82
2019-05-02T08:16:27.429Z,27.81
2019-05-02T08:17:26.627Z,27.42
2019-05-02T08:18:30.440Z,28.92
2019-05-02T08:19:26.593Z,28.36
2019-05-02T08:20:26.580Z,29.24
2019-05-02T08:21:27.299Z,28.55
2019-05-02T08:22:28.652Z,27.32
2019-05-02T08:23:27.890Z,27.82
2019-05-02T08:24:26.602Z,27.60
2019-05-02T08:25:26.533Z,26.20
2019-05-02T08:26:26.524Z,27.50
2019-05-02T08:27:29.343Z,27.71
2019-05-02T08:28:27.494Z,27.32
2019-05-02T08:29:28.857Z,28.31
2019-05-02T08:30:26.456Z,27.42
2019-05-02T08:31:26.444Z,26.89
2019-05-02T08:32:26.467Z,26.68
2019-05-02T08:33:29.423Z,26.87
2019-05-02T08:34:27.449Z,26.68
2019-05-02T08:35:28.312Z,27.67
2019-05-02T08:36:26.410Z,27.77
2019-05-02T08:37:26.431Z,27.07
2019-05-02T08:38:26.390Z,26.58
2019-05-02T08:39:33.244Z,26.37
2019-05-02T08:40:27.378Z,25.70
2019-05-02T08:41:27.216Z,24.18
2019-05-02T08:42:27.684Z,25.65
2019-05-02T08:43:27.337Z,25.52
2019-05-02T08:44:28.408Z,25.82
2019-05-02T08:45:26.296Z,25.43
2019-05-02T08:46:26.411Z,23.54
2019-05-02T08:47:28.629Z,23.51
2019-05-02T08:48:26.267Z,23.52
2019-05-02T08:49:26.311Z,23.73
2019-05-02T08:50:27.107Z,24.02
2019-05-02T08:51:27.250Z,23.88
2019-05-02T08:52:26.251Z,24.59
2019-05-02T08:53:26.222Z,24.96
2019-05-02T08:54:27.944Z,23.65
2019-05-02T08:55:29.917Z,23.44
2019-05-02T08:56:26.182Z,22.38
2019-05-02T08:57:30.065Z,23.83
2019-05-02T08:58:27.164Z,24.02
2019-05-02T08:59:26.260Z,23.46
2019-05-02T09:00:26.147Z,23.62
2019-05-02T09:01:34.867Z,23.14
2019-05-02T09:02:27.479Z,24.03
2019-05-02T09:03:27.162Z,26.08
2019-05-02T09:04:29.114Z,27.61
2019-05-02T09:05:26.088Z,27.72
2019-05-02T09:06:26.060Z,27.76
2019-05-02T09:07:26.206Z,25.54
2019-05-02T09:08:26.064Z,25.62
2019-05-02T09:09:28.202Z,25.99
2019-05-02T09:10:26.032Z,25.98
2019-05-02T09:11:26.102Z,24.79
2019-05-02T09:12:26.003Z,23.99
2019-05-02T09:13:29.098Z,22.87
2019-05-02T09:14:25.984Z,23.66
2019-05-02T09:15:28.025Z,27.12
2019-05-02T09:16:28.607Z,27.82
2019-05-02T09:17:35.431Z,29.92
2019-05-02T09:18:35.039Z,30.98
2019-05-02T09:19:26.917Z,29.62
2019-05-02T09:20:25.910Z,28.96
2019-05-02T09:21:32.204Z,31.54
2019-05-02T09:22:26.885Z,32.58
2019-05-02T09:23:27.518Z,31.81
2019-05-02T09:24:26.921Z,31.79
2019-05-02T09:25:25.971Z,31.53
2019-05-02T09:26:34.983Z,31.15
2019-05-02T09:27:26.832Z,29.89
2019-05-02T09:28:26.951Z,28.82
2019-05-02T09:29:25.815Z,30.18
2019-05-02T09:30:26.041Z,30.81
2019-05-02T09:31:25.797Z,30.06
2019-05-02T09:32:26.652Z,30.54
2019-05-02T09:33:25.777Z,29.24
2019-05-02T09:34:26.820Z,31.15
2019-05-02T09:35:25.751Z,32.61
2019-05-02T09:36:25.730Z,32.50
2019-05-02T09:37:25.719Z,30.29
2019-05-02T09:38:25.800Z,30.55
2019-05-02T09:39:27.336Z,29.86
2019-05-02T09:40:35.301Z,30.55
2019-05-02T09:41:26.804Z,30.79
2019-05-02T09:42:33.303Z,28.77
2019-05-02T09:43:29.343Z,27.95
2019-05-02T09:44:26.664Z,27.36
2019-05-02T09:45:27.827Z,28.31
2019-05-02T09:46:26.624Z,28.93
2019-05-02T09:47:27.501Z,32.63
2019-05-02T09:48:26.987Z,34.12
2019-05-02T09:49:25.596Z,33.82
2019-05-02T09:50:31.225Z,33.04
2019-05-02T09:51:26.557Z,34.38
2019-05-02T09:52:25.558Z,34.38
2019-05-02T09:53:25.784Z,35.50
2019-05-02T09:54:25.642Z,37.51
2019-05-02T09:55:25.520Z,37.20
2019-05-02T09:56:25.582Z,34.61
2019-05-02T09:57:25.491Z,36.62
2019-05-02T09:58:25.521Z,38.07
2019-05-02T09:59:30.117Z,40.56
2019-05-02T10:00:26.673Z,39.91
2019-05-02T10:01:26.535Z,41.25
2019-05-02T10:02:25.434Z,42.60
2019-05-02T10:03:25.436Z,43.12
2019-05-02T10:04:25.436Z,44.34
2019-05-02T10:05:25.487Z,43.86
2019-05-02T10:06:25.409Z,41.45
2019-05-02T10:07:25.430Z,40.43
2019-05-02T10:08:25.395Z,40.63
2019-05-02T10:09:27.239Z,37.62
2019-05-02T10:10:25.443Z,40.91
2019-05-02T10:11:26.296Z,40.69
2019-05-02T10:12:25.361Z,35.96
2019-05-02T10:13:25.330Z,36.88
2019-05-02T10:14:25.332Z,39.17
2019-05-02T10:15:25.309Z,36.87
2019-05-02T10:16:27.452Z,35.68
2019-05-02T10:17:25.284Z,33.87
2019-05-02T10:18:30.020Z,33.58
2019-05-02T10:19:26.267Z,33.51
2019-05-02T10:20:31.893Z,34.12
2019-05-02T10:21:26.237Z,33.04
2019-05-02T10:22:30.962Z,34.54
2019-05-02T10:23:26.208Z,36.16
2019-05-02T10:24:25.240Z,37.96
2019-05-02T10:25:25.168Z,37.55
2019-05-02T10:26:25.273Z,36.43
2019-05-02T10:27:25.161Z,37.35
2019-05-02T10:28:26.201Z,36.07
2019-05-02T10:29:28.278Z,34.38
2019-05-02T10:30:25.132Z,36.29
2019-05-02T10:31:27.490Z,33.37
2019-05-02T10:32:26.154Z,36.89
2019-05-02T10:33:27.958Z,36.79
2019-05-02T10:34:27.181Z,36.89
2019-05-02T10:35:28.111Z,37.79
2019-05-02T10:36:26.058Z,36.70
2019-05-02T10:37:30.570Z,36.70
2019-05-02T10:38:26.048Z,37.63
2019-05-02T10:39:28.430Z,35.91
2019-05-02T10:40:26.019Z,38.05
2019-05-02T10:41:25.028Z,36.84
2019-05-02T10:42:25.002Z,36.72
2019-05-02T10:43:26.000Z,36.92
2019-05-02T10:44:27.111Z,37.52
2019-05-02T10:45:26.041Z,36.92
2019-05-02T10:46:27.841Z,37.73
2019-05-02T10:47:25.934Z,37.45
2019-05-02T10:48:28.411Z,38.93
2019-05-02T10:49:24.944Z,38.31
2019-05-02T10:50:24.955Z,40.02
2019-05-02T10:51:26.181Z,37.59
2019-05-02T10:52:29.562Z,39.00
2019-05-02T10:53:25.886Z,38.70
2019-05-02T10:54:28.062Z,41.19
2019-05-02T10:55:33.338Z,38.68
2019-05-02T10:56:24.854Z,40.39
2019-05-02T10:57:24.829Z,38.98
2019-05-02T10:58:31.373Z,39.58
2019-05-02T10:59:25.851Z,40.59
2019-05-02T11:00:26.901Z,41.31
2019-05-02T11:01:24.783Z,40.89
2019-05-02T11:02:24.885Z,39.50
2019-05-02T11:03:24.772Z,39.20
2019-05-02T11:04:29.175Z,39.42
2019-05-02T11:05:26.641Z,40.20
2019-05-02T11:06:24.754Z,41.11
2019-05-02T11:07:26.409Z,39.98
2019-05-02T11:08:24.712Z,40.37
2019-05-02T11:09:26.398Z,39.66
2019-05-02T11:10:24.781Z,39.66
2019-05-02T11:11:24.679Z,40.75
2019-05-02T11:12:30.244Z,38.51
2019-05-02T11:13:25.659Z,40.69
2019-05-02T11:14:24.649Z,40.27
2019-05-02T11:15:26.805Z,39.95
2019-05-02T11:16:25.661Z,37.53
2019-05-02T11:17:24.612Z,38.05
2019-05-02T11:18:40.235Z,37.45
2019-05-02T11:19:25.663Z,39.77
2019-05-02T11:20:24.594Z,41.07
2019-05-02T11:21:25.603Z,39.99
2019-05-02T11:22:24.545Z,40.39
2019-05-02T11:23:25.659Z,38.89
2019-05-02T11:24:24.543Z,39.81
2019-05-02T11:25:24.551Z,39.31
2019-05-02T11:26:25.287Z,40.53
2019-05-02T11:27:24.500Z,40.63
2019-05-02T11:28:24.558Z,41.25
2019-05-02T11:29:24.470Z,41.87
2019-05-02T11:30:26.486Z,42.19
2019-05-02T11:31:26.501Z,42.30
2019-05-02T11:32:24.440Z,44.60
2019-05-02T11:33:24.492Z,43.18
2019-05-02T11:34:24.414Z,41.89
2019-05-02T11:35:24.482Z,43.50
2019-05-02T11:36:27.283Z,43.30
2019-05-02T11:37:25.485Z,42.68
2019-05-02T11:38:40.894Z,42.76
2019-05-02T11:39:34.220Z,42.66
2019-05-02T11:40:25.396Z,44.64
2019-05-02T11:41:24.340Z,39.54
2019-05-02T11:42:27.222Z,40.95
2019-05-02T11:43:24.318Z,41.15
2019-05-02T11:44:24.349Z,40.03
2019-05-02T11:45:24.300Z,39.32
2019-05-02T11:46:24.303Z,40.43
2019-05-02T11:47:26.613Z,41.23
2019-05-02T11:48:24.320Z,42.33
2019-05-02T11:49:24.261Z,40.53
2019-05-02T11:50:26.606Z,40.43
2019-05-02T11:51:25.252Z,40.21
2019-05-02T11:52:27.383Z,39.83
2019-05-02T11:53:29.174Z,40.91
2019-05-02T11:54:24.196Z,40.31
2019-05-02T11:55:28.902Z,42.49
2019-05-02T11:56:24.195Z,41.09
2019-05-02T11:57:28.720Z,41.23
2019-05-02T11:58:25.147Z,38.82
2019-05-02T11:59:28.225Z,40.63
2019-05-02T12:00:25.139Z,40.41
2019-05-02T12:01:35.741Z,40.21
2019-05-02T12:02:25.109Z,40.11
2019-05-02T12:03:28.095Z,42.72
2019-05-02T12:04:25.081Z,42.63
2019-05-02T12:05:26.591Z,42.96
2019-05-02T12:06:25.072Z,42.55
2019-05-02T12:07:24.113Z,43.16
2019-05-02T12:08:24.073Z,42.38
2019-05-02T12:09:24.026Z,41.71
2019-05-02T12:10:27.912Z,41.19
2019-05-02T12:11:24.016Z,42.41
2019-05-02T12:12:27.331Z,40.81
2019-05-02T12:13:24.988Z,42.41
2019-05-02T12:14:27.447Z,43.30
2019-05-02T12:15:24.958Z,42.80
2019-05-02T12:16:24.070Z,40.79
2019-05-02T12:17:23.949Z,43.22
2019-05-02T12:18:23.960Z,42.11
2019-05-02T12:19:23.921Z,42.61
2019-05-02T12:20:24.001Z,42.11
2019-05-02T12:21:23.926Z,41.09
2019-05-02T12:22:23.981Z,40.11
2019-05-02T12:23:23.882Z,41.29
2019-05-02T12:24:23.887Z,39.08
2019-05-02T12:25:23.844Z,40.28
2019-05-02T12:26:23.954Z,41.07
2019-05-02T12:27:23.838Z,41.27
2019-05-02T12:28:23.848Z,42.38
2019-05-02T12:29:23.809Z,39.97
2019-05-02T12:30:23.797Z,42.16
2019-05-02T12:31:23.811Z,42.05
2019-05-02T12:32:24.777Z,40.55
2019-05-02T12:33:23.770Z,40.17
2019-05-02T12:34:23.860Z,41.35
2019-05-02T12:35:23.831Z,41.13
2019-05-02T12:36:23.741Z,42.94
2019-05-02T12:37:23.763Z,41.43
2019-05-02T12:38:23.711Z,42.03
2019-05-02T12:39:24.724Z,43.14
2019-05-02T12:40:23.683Z,40.83
2019-05-02T12:41:25.280Z,40.83
2019-05-02T12:42:24.957Z,42.86
2019-05-02T12:43:23.647Z,41.15
2019-05-02T12:44:23.742Z,41.63
2019-05-02T12:45:23.638Z,42.13
2019-05-02T12:46:23.616Z,40.73
2019-05-02T12:47:23.619Z,41.93
2019-05-02T12:48:23.609Z,42.35
2019-05-02T12:49:27.627Z,42.05
2019-05-02T12:50:23.570Z,42.07
2019-05-02T12:51:23.559Z,41.19
2019-05-02T12:52:23.633Z,43.20
2019-05-02T12:53:23.546Z,42.19
2019-05-02T12:54:24.655Z,42.27
2019-05-02T12:55:23.513Z,42.47
2019-05-02T12:56:23.554Z,42.07
2019-05-02T12:57:23.564Z,43.28